Salesville, Texas
Current Conditions -  °F | °C
As of 7:53 AM on Monday 20 Oct 2014 (Local Time) from KMWL Reporting Station
Haze Haze  
Wind Chill: 58°   Ceiling: Unl
Heat Index: 58°   Visibility: 4mi
Dew Point: 56°   Wind: 0mph
Humidity: 93%   Direction: NA
Pressure: 30.07"   Gusts: NA
Location:  32.7965°N, 98.1108°W
Report Text: KMWL 201253Z AUTO 00000KT 4SM BR CLR 14/13 A3007 RMK AO2 SLP175 T01440133
Loading
Personal Weather Stations






























Interactive Weather Map
Tropical Storm Tracking
New forecast layout! Learn more

10-Day Weather Forecast

Advertisements
Track Severe Weather on mobile